Météo Nord-Pas-de-Calais   La météo au plus près de chez vous

Station météorologique

Observations météo à Chartres (28070)

28070001 155 m Dernier relevé à 05:18
17.1°C
Humidité 84 % Vent 13.7 km/h 1014 hPa

Journée consultée

Lundi 31 Août 2026

Synthèse de la journée

Périodes de référence en UTC

Température maximale

24.4°C

à 15:00

06h 06h

Température minimale

16.8°C

à 05:00

18h 18h

Rafale maximale

39 km/h

à 02:30

00h 00h

Précipitations

0 mm

Cumul quotidien

06h 06h

Ensoleillement

0h 0 mins

Durée quotidienne

00h 00h

Graphiques de la journée

Heure locale Réduire

Données détaillées

Relevés météo

Pas de 6 minutes Afficher les relevés infra-horaires
Relevés météo détaillés à Chartres pour le Lundi 31 Août 2026
Heure Température °C Point de rosée °C Humidité % Vent moyen (raf.), km/h Précipitations mm Température à 10 cm °C Température à 20 cm °C Température à 50 cm °C Température à 100 cm °C Visibilité m État du sol   Hauteur neige cm Ensoleillement min Rayonnement global W/m² Pression hPa
05:18 17.1 °C 13.6 °C 80 % 14 km/h (28 km/h) 0 mm0 mm 20.2 °C 20.5 °C 20.6 °C 20.2 °C 20000 m 0   0 cm 0 min 0 W/m² 1014.3 hPa
05:12 17.1 °C 13.6 °C 80 % 13 km/h (23 km/h) 0 mm0 mm 20.2 °C 20.5 °C 20.6 °C 20.1 °C 20000 m 0   0 cm 0 min 0 W/m² 1014.3 hPa
05:06 17.1 °C 13.6 °C 80 % 13 km/h (23 km/h) 0 mm0 mm 20.2 °C 20.5 °C 20.6 °C 20.1 °C 20000 m 0   0 cm 0 min 0 W/m² 1014.2 hPa
05:00 17 °C 13.5 °C 80 % 13 km/h (21 km/h) 0 mm0 mm 20.2 °C 20.5 °C 20.6 °C 20.1 °C 20000 m 0   0 cm 0 min 0 W/m² 1014.2 hPa
04:54 17.1 °C 13.4 °C 79 % 14 km/h (24 km/h) 0 mm0 mm 20.2 °C 20.5 °C 20.6 °C 20.2 °C 20000 m 0   0 cm 0 min 0 W/m² 1014.3 hPa
04:48 17.1 °C 13.4 °C 79 % 15 km/h (27 km/h) 0 mm0 mm 20.2 °C 20.5 °C 20.6 °C 20.2 °C 20000 m 0   0 cm 0 min 0 W/m² 1014.3 hPa
04:42 17 °C 13.5 °C 80 % 15 km/h (29 km/h) 0 mm0 mm 20.2 °C 20.5 °C 20.6 °C 20.1 °C 20000 m 0   0 cm 0 min 0 W/m² 1014.3 hPa
04:36 17 °C 13.5 °C 80 % 16 km/h (29 km/h) 0 mm0 mm 20.3 °C 20.6 °C 20.6 °C 20.2 °C 20000 m 0   0 cm 0 min 0 W/m² 1014.2 hPa
04:30 16.9 °C 13.8 °C 82 % 15 km/h (27 km/h) 0 mm0 mm 20.3 °C 20.6 °C 20.6 °C 20.2 °C 20000 m 0   0 cm 0 min 0 W/m² 1014.2 hPa
04:24 16.9 °C 14 °C 83 % 14 km/h (27 km/h) 0 mm0 mm 20.2 °C 20.6 °C 20.6 °C 20.2 °C 20000 m 0   0 cm 0 min 0 W/m² 1014.1 hPa
04:18 16.9 °C 14.2 °C 84 % 14 km/h (23 km/h) 0 mm0 mm 20.3 °C 20.6 °C 20.6 °C 20.2 °C 20000 m 0   0 cm 0 min 0 W/m² 1014 hPa
04:12 16.9 °C 14.2 °C 84 % 14 km/h (24 km/h) 0 mm0 mm 20.3 °C 20.6 °C 20.6 °C 20.2 °C 20000 m 0   0 cm 0 min 0 W/m² 1014 hPa
04:06 17 °C 14.1 °C 83 % 14 km/h (24 km/h) 0 mm0 mm 20.3 °C 20.6 °C 20.6 °C 20.2 °C 20000 m 0   0 cm 0 min 0 W/m² 1014 hPa
04:00 17.1 °C 14.2 °C 83 % 13 km/h (24 km/h) 0 mm0 mm 20.3 °C 20.6 °C 20.6 °C 20.2 °C 20000 m 0   0 cm 0 min 0 W/m² 1014 hPa
03:54 17.2 °C 14.3 °C 83 % 13 km/h (24 km/h) 0 mm0 mm 20.4 °C 20.6 °C 20.6 °C 20.1 °C 20000 m 0   0 cm 0 min 0 W/m² 1014 hPa
03:48 17.2 °C 14.3 °C 83 % 15 km/h (27 km/h) 0 mm0 mm 20.3 °C 20.6 °C 20.6 °C 20.1 °C 20000 m 0   0 cm 0 min 0 W/m² 1014 hPa
03:42 17.2 °C 14.3 °C 83 % 18 km/h (30 km/h) 0 mm0 mm 20.4 °C 20.6 °C 20.6 °C 20.1 °C 20000 m 0   0 cm 0 min 0 W/m² 1014 hPa
03:36 17.2 °C 14.3 °C 83 % 17 km/h (30 km/h) 0 mm0 mm 20.4 °C 20.6 °C 20.6 °C 20.2 °C 20000 m 0   0 cm 0 min 0 W/m² 1014 hPa
03:30 17.3 °C 14.4 °C 83 % 15 km/h (32 km/h) 0 mm0 mm 20.4 °C 20.6 °C 20.6 °C 20.2 °C 20000 m 0   0 cm 0 min 0 W/m² 1014 hPa
03:24 17.2 °C 14.3 °C 83 % 17 km/h (32 km/h) 0 mm0 mm 20.4 °C 20.6 °C 20.6 °C 20.2 °C 20000 m 0   0 cm 0 min 0 W/m² 1014 hPa
03:18 17.2 °C 14.3 °C 83 % 17 km/h (29 km/h) 0 mm0 mm 20.4 °C 20.6 °C 20.6 °C 20.1 °C 20000 m 0   0 cm 0 min 0 W/m² 1014 hPa
03:12 17.2 °C 14.1 °C 82 % 17 km/h (32 km/h) 0 mm0 mm 20.4 °C 20.6 °C 20.6 °C 20.2 °C 20000 m 0   0 cm 0 min 0 W/m² 1014 hPa
03:06 17.3 °C 14.2 °C 82 % 16 km/h (32 km/h) 0 mm0 mm 20.4 °C 20.6 °C 20.6 °C 20.1 °C 20000 m 0   0 cm 0 min 0 W/m² 1013.9 hPa
03:00 17.3 °C 14 °C 81 % 17 km/h (28 km/h) 0 mm0 mm 20.4 °C 20.6 °C 20.6 °C 20.2 °C 20000 m 0   0 cm 0 min 0 W/m² 1013.9 hPa
02:54 17.4 °C 14.1 °C 81 % 19 km/h (30 km/h) 0 mm0 mm 20.4 °C 20.7 °C 20.6 °C 20.2 °C 20000 m 0   0 cm 0 min 0 W/m² 1013.9 hPa
02:48 17.4 °C 14.1 °C 81 % 19 km/h (31 km/h) 0 mm0 mm 20.4 °C 20.7 °C 20.6 °C 20.2 °C 20000 m 0   0 cm 0 min 0 W/m² 1014 hPa
02:42 17.4 °C 14.1 °C 81 % 19 km/h (37 km/h) 0 mm0 mm 20.5 °C 20.7 °C 20.6 °C 20.2 °C 20000 m 0   0 cm 0 min 0 W/m² 1013.9 hPa
02:36 17.4 °C 14.1 °C 81 % 21 km/h (37 km/h) 0 mm0 mm 20.5 °C 20.7 °C 20.6 °C 20.2 °C 20000 m 0   0 cm 0 min 0 W/m² 1013.9 hPa
02:30 17.3 °C 14 °C 81 % 22 km/h (39 km/h) 0 mm0 mm 20.5 °C 20.7 °C 20.6 °C 20.2 °C 20000 m 0   0 cm 0 min 0 W/m² 1013.8 hPa
02:24 17.3 °C 14 °C 81 % 19 km/h (36 km/h) 0 mm0 mm 20.5 °C 20.7 °C 20.6 °C 20.2 °C 20000 m 0   0 cm 0 min 0 W/m² 1013.8 hPa
02:18 17.3 °C 13.8 °C 80 % 19 km/h (32 km/h) 0 mm0 mm 20.5 °C 20.7 °C 20.6 °C 20.2 °C 20000 m 0   0 cm 0 min 0 W/m² 1013.9 hPa
02:12 17.4 °C 13.7 °C 79 % 19 km/h (32 km/h) 0 mm0 mm 20.5 °C 20.7 °C 20.6 °C 20.2 °C 20000 m 0   0 cm 0 min 0 W/m² 1013.9 hPa
02:06 17.4 °C 13.7 °C 79 % 17 km/h (29 km/h) 0 mm0 mm 20.6 °C 20.7 °C 20.6 °C 20.2 °C 20000 m 0   0 cm 0 min 0 W/m² 1013.9 hPa
02:00 17.5 °C 13.6 °C 78 % 18 km/h (34 km/h) 0 mm0 mm 20.6 °C 20.7 °C 20.6 °C 20.2 °C 20000 m 0   0 cm 0 min 0 W/m² 1013.9 hPa
01:54 17.6 °C 13.7 °C 78 % 18 km/h (33 km/h) 0 mm0 mm 20.6 °C 20.7 °C 20.6 °C 20.1 °C 20000 m 0   0 cm 0 min 0 W/m² 1013.8 hPa
01:48 17.6 °C 13.7 °C 78 % 16 km/h (30 km/h) 0 mm0 mm 20.6 °C 20.7 °C 20.6 °C 20.2 °C 20000 m 0   0 cm 0 min 0 W/m² 1013.8 hPa
01:42 17.5 °C 13.4 °C 77 % 15 km/h (26 km/h) 0 mm0 mm 20.6 °C 20.7 °C 20.6 °C 20.2 °C 20000 m 0   0 cm 0 min 0 W/m² 1013.9 hPa
01:36 17.5 °C 13.2 °C 76 % 14 km/h (24 km/h) 0 mm0 mm 20.6 °C 20.7 °C 20.6 °C 20.2 °C 20000 m 0   0 cm 0 min 0 W/m² 1014 hPa
01:30 17.4 °C 13.1 °C 76 % 13 km/h (22 km/h) 0 mm0 mm 20.6 °C 20.8 °C 20.6 °C 20.2 °C 20000 m 0   0 cm 0 min 0 W/m² 1014 hPa
01:24 17.4 °C 12.9 °C 75 % 14 km/h (23 km/h) 0 mm0 mm 20.7 °C 20.8 °C 20.6 °C 20.2 °C 20000 m 0   0 cm 0 min 0 W/m² 1014 hPa
01:18 17.4 °C 12.7 °C 74 % 15 km/h (26 km/h) 0 mm0 mm 20.7 °C 20.8 °C 20.6 °C 20.2 °C 20000 m 0   0 cm 0 min 0 W/m² 1014 hPa
01:12 17.4 °C 12.5 °C 73 % 14 km/h (24 km/h) 0 mm0 mm 20.7 °C 20.8 °C 20.6 °C 20.2 °C 20000 m 0   0 cm 0 min 0 W/m² 1014 hPa
01:06 17.5 °C 12.6 °C 73 % 15 km/h (26 km/h) 0 mm0 mm 20.7 °C 20.8 °C 20.6 °C 20.1 °C 20000 m 0   0 cm 0 min 0 W/m² 1014 hPa
01:00 17.5 °C 12.6 °C 73 % 14 km/h (26 km/h) 0 mm0 mm 20.7 °C 20.8 °C 20.6 °C 20.2 °C 20000 m 0   0 cm 0 min 0 W/m² 1014 hPa
00:54 17.5 °C 12.4 °C 72 % 14 km/h (28 km/h) 0 mm0 mm 20.7 °C 20.8 °C 20.6 °C 20.2 °C 20000 m 0   0 cm 0 min 0 W/m² 1014 hPa
00:48 17.6 °C 12.5 °C 72 % 14 km/h (28 km/h) 0 mm0 mm 20.7 °C 20.8 °C 20.6 °C 20.1 °C 20000 m 0   0 cm 0 min 0 W/m² 1014 hPa
00:42 17.6 °C 12.5 °C 72 % 13 km/h (24 km/h) 0 mm0 mm 20.7 °C 20.8 °C 20.6 °C 20.2 °C 20000 m 0   0 cm 0 min 0 W/m² 1014 hPa
00:36 17.6 °C 12.5 °C 72 % 12 km/h (21 km/h) 0 mm0 mm 20.7 °C 20.8 °C 20.6 °C 20.2 °C 20000 m 0   0 cm 0 min 0 W/m² 1014 hPa
00:30 17.7 °C 12.6 °C 72 % 10 km/h (19 km/h) 0 mm0 mm 20.8 °C 20.8 °C 20.6 °C 20.2 °C 20000 m 0   0 cm 0 min 0 W/m² 1013.9 hPa
00:24 17.8 °C 12.7 °C 72 % 10 km/h (17 km/h) 0 mm0 mm 20.8 °C 20.8 °C 20.6 °C 20.2 °C 20000 m 0   0 cm 0 min 0 W/m² 1013.8 hPa
00:18 17.8 °C 12.5 °C 71 % 9 km/h (15 km/h) 0 mm0 mm 20.8 °C 20.8 °C 20.6 °C 20.2 °C 20000 m 0   0 cm 0 min 0 W/m² 1013.8 hPa
00:12 18 °C 12.7 °C 71 % 9 km/h (22 km/h) 0 mm0 mm 20.8 °C 20.8 °C 20.6 °C 20.2 °C 20000 m 0   0 cm 0 min 0 W/m² 1013.8 hPa
00:06 18.2 °C 12.6 °C 70 % 12 km/h (22 km/h) 0 mm0 mm 20.8 °C 20.8 °C 20.6 °C 20.2 °C 20000 m 0   0 cm 0 min 0 W/m² 1013.8 hPa
00:00 18.3 °C 12.5 °C 69 % 15 km/h (27 km/h) 0 mm0 mm 20.8 °C 20.8 °C 20.6 °C 20.2 °C 20000 m 0   0 cm 0 min 0 W/m² 1013.8 hPa

Données via Météo-France

Relevés météo à Chartres

Cette page rassemble les observations de la station de Chartres : température, humidité, vent, précipitations et pression atmosphérique. Les graphiques facilitent le suivi de la journée, tandis que le tableau donne accès aux mesures horaires et infra-horaires disponibles.

Pour replacer ces mesures dans leur contexte, consultez la climatologie de Chartres ainsi que ses normales et records. Retrouvez aussi la carte des observations météo en temps réel.